Fairchild Air Force Base
KSKA : now visible

Airfield :











YOU CAN JOIN US ON...

 
LOGIN :

Register | Disclaimer

   EN    FR    IT 

 









Legend :    VFR   Marginal VFR   IFR   Intensive IFR   Very Intensive IFR
Visi :
Ceiling :
>= 8 km
>= 3000ft
5 to 8 km
1000 to 3000 ft
1500m to 5 km
500 to 1000 ft
800 to 1500m
200 to 500 ft
< 800m
< 200 ft
Symbols :   Thunderstorms  Fog  Heavy snow  Heavy precipitations  Wind > 20 kt






- Airport Elevation : 2461 ft


KSKA - Fairchild Air Force Base

CURRENT METAR :
  • 171816Z AUTO 15009KT 10SM OVC007 07/07 A3006 RMK AO2 CIG 004 RWY05 SLP193 $

EXPIRED METARs :
  • 171758Z 16009KT 10SM SCT007 BKN015 OVC080 06/06 A3007 RMK AO2A RAE33 CIG 004 RWY05 SLP198 P0002 60034 T00620062 10062 20053 58006 $
  • 171733Z 15007KT 10SM SCT007 BKN015 OVC080 06/06 A3008 RMK AO2A RAE33 BKN V OVC CIG 004 RWY05 SLP202 $
  • 171656Z 15007KT 4SM RA SCT007 OVC015 06/06 A3010 RMK AO2A CIG 007V015 CIG 004 RWY05 SLP209 P0009 T00570057 $
  • 171638Z 16003KT 4SM -RA FEW009 OVC015 06/06 A3010 RMK AO2A CIG 004 RWY05 SLP209 $
  • 171626Z 15005KT 4SM -RA BKN018 OVC023 06/06 A3011 RMK AO2A CIG 004 RWY05 SLP212 $
  • 171556Z AUTO 14006KT 4SM RA BR BKN025 06/06 A3010 RMK AO2 CIG 004 RWY05 SLP209 P0013 T00550055 $
  • 171555Z 16004KT 5SM -RA BR OVC030 06/06 A3012 RMK AO2A WND DATA ESTMD ALSTG ESTMD SLPNO $

TAF TAF KSKA
Valid from the 17 at 11:00 until the 18 at 17:00 UTC


171100Z 1711/1817 15005KT 9999 VCSH SCT050 BKN120 QNH3010INS
BECMG 1714/1715 20009KT 9000 -RA FEW006 BKN015 QNH3008INS
BECMG 1719/1720 22009KT 9999 NSW BKN050 QNH3006INS
BECMG 1808/1809 08005KT 0800 FG BKN003 QNH3010INS TX11/1722Z TN05/1712Z



MET'MAP, your aeronautical weather chart ! - Copyright ORBIFLY December 2007 - Disclaimer

ORBIFLY MET'MAP TEAM :

Programming & Development : Alexandra Zaïnal
Concept & Development : Baudouin d'Aumeries
Co-Development & Prog : Marc-Olivier Méhu
Technical & hardware support : Manuel Goepfert

Contact : metmap@orbifly.com




SOURCES & CREDITS :

   NOAA       Earth
Advisory